»·PEaware :: DAL690 KSFO-KLAS

DAL690 :: KSFO-KLAS

FLIGHT INFORMATION

Flight Status: Arrived
Operator:
Delta Air Lines
More flights by this operator :: More flights under this callsign
Pilot: Mike C. (16705)
Aircraft: AIRBUS A320
(A320)
More flights by this aircraft type
Origin: KSFO San Francisco Intl
United States
Destination: KLAS McCarran Intl
United States
More flights between these airports :: More routes between these airports
Route: +SSTIK3 NTELL ESSAA BTY SUNST4
File this flight plan on PilotEdge
Remarks: PBN / A1B1C1D1L1O1S1 NAV / RNVD1E2A1 DOF / 180109 REG / N838NN EET / KZLA0040 RVR / 200 PER / C
Altitude:
(Current/Filed)
370ft
Speed:
(Current/Filed)
455kts
Departed: 09-Jan-18 02:29 PM
Arrived: 09-Jan-18 03:41 PM
Distance/Time
Traveled:
359nm/1:12
Distance/Time
To Go:
Arrived

Flight Plot

Page will automatically refresh every two minutes.

Flight plan parsing failed; only flown route is shown


Map Options




Map Legend


Flown Route
Filed Route
Departure Airport
Arrival Airport
Navaid (VOR, NDB)
Fix

Horizontal Profiles

Position Reports

Time Latitude Longitude Heading Altitude Ground
Speed
09-Jan-18 14:04 37.612797 -122.383070 299 27ft 0kts
09-Jan-18 14:05 37.612797 -122.383070 299 27ft 0kts
09-Jan-18 14:06 37.612797 -122.383070 299 27ft 0kts
09-Jan-18 14:07 37.612797 -122.383070 299 27ft 0kts
09-Jan-18 14:08 37.612797 -122.383070 299 27ft 0kts
09-Jan-18 14:09 37.612797 -122.383070 299 27ft 0kts
09-Jan-18 14:10 37.612797 -122.383070 299 27ft 0kts
09-Jan-18 14:11 37.612797 -122.383070 299 27ft 0kts
09-Jan-18 14:12 37.612797 -122.383070 299 27ft 0kts
09-Jan-18 14:13 37.612797 -122.383070 299 27ft 0kts
09-Jan-18 14:14 37.612797 -122.383070 299 27ft 0kts
09-Jan-18 14:15 37.612797 -122.383070 299 27ft 0kts
09-Jan-18 14:16 37.612797 -122.383070 299 27ft 0kts
09-Jan-18 14:17 37.612797 -122.383070 299 27ft 0kts
09-Jan-18 14:18 37.612797 -122.383070 299 27ft 0kts
09-Jan-18 14:19 37.612797 -122.383070 299 27ft 0kts
09-Jan-18 14:20 37.612797 -122.383070 299 27ft 0kts
09-Jan-18 14:21 37.612797 -122.383070 299 27ft 0kts
09-Jan-18 14:22 37.612797 -122.383070 299 27ft 0kts
09-Jan-18 14:23 37.612797 -122.383070 299 27ft 0kts
09-Jan-18 14:24 37.612797 -122.383070 299 27ft 0kts
09-Jan-18 14:25 37.612797 -122.383070 299 27ft 0kts
09-Jan-18 14:26 37.612797 -122.383071 299 27ft 0kts
09-Jan-18 14:27 37.612800 -122.383077 299 27ft 0kts
09-Jan-18 14:28 37.612816 -122.382090 222 27ft 0kts
09-Jan-18 14:29 37.612500 -122.382398 207 27ft 3kts
09-Jan-18 14:30 37.611747 -122.382836 204 27ft 2kts
09-Jan-18 14:31 37.610432 -122.383649 209 27ft 10kts
09-Jan-18 14:32 37.609198 -122.382937 106 27ft 2kts
09-Jan-18 14:33 37.609185 -122.382876 104 27ft 0kts
09-Jan-18 14:34 37.609130 -122.382593 103 27ft 9kts
09-Jan-18 14:35 37.625924 -122.371070 32 210ft 173kts
09-Jan-18 14:36 37.676919 -122.362176 4 3073ft 228kts
09-Jan-18 14:37 37.721397 -122.414314 266 5936ft 266kts
09-Jan-18 14:38 37.663516 -122.462264 182 8984ft 290kts
09-Jan-18 14:39 37.577858 -122.467525 184 10078ft 349kts
09-Jan-18 14:40 37.480134 -122.453872 142 12601ft 363kts
09-Jan-18 14:41 37.419172 -122.350924 120 14869ft 377kts
09-Jan-18 14:42 37.388551 -122.223173 101 16906ft 389kts
09-Jan-18 14:43 37.361974 -122.088840 102 18797ft 403kts
09-Jan-18 14:44 37.334380 -121.950760 102 20689ft 410kts
09-Jan-18 14:45 37.306017 -121.810493 102 22358ft 419kts
09-Jan-18 14:46 37.277011 -121.667474 102 23861ft 427kts
09-Jan-18 14:47 37.247146 -121.521417 102 25252ft 434kts
09-Jan-18 14:48 37.216781 -121.373780 103 26528ft 441kts
09-Jan-18 14:49 37.185726 -121.223895 103 27694ft 447kts
09-Jan-18 14:50 37.154346 -121.073463 103 28754ft 453kts
09-Jan-18 14:51 37.122062 -120.919890 103 29799ft 457kts
09-Jan-18 14:52 37.089592 -120.766338 103 30971ft 457kts
09-Jan-18 14:53 37.056794 -120.612449 104 32039ft 457kts
09-Jan-18 14:54 37.023859 -120.458814 104 33015ft 457kts
09-Jan-18 14:55 36.990593 -120.304896 105 33910ft 458kts
09-Jan-18 14:56 36.957184 -120.151137 105 34673ft 459kts
09-Jan-18 14:57 36.923509 -119.997354 105 35386ft 459kts
09-Jan-18 14:58 36.902058 -119.839963 87 36046ft 462kts
09-Jan-18 14:59 36.914659 -119.680039 87 36490ft 464kts
09-Jan-18 15:00 36.924733 -119.518470 86 36814ft 467kts
09-Jan-18 15:01 36.935575 -119.357153 87 36813ft 466kts
09-Jan-18 15:02 36.945909 -119.195734 87 36810ft 466kts
09-Jan-18 15:03 36.956080 -119.033838 88 36838ft 466kts
09-Jan-18 15:04 36.966035 -118.872162 88 36829ft 467kts
09-Jan-18 15:05 36.975785 -118.710322 88 36823ft 468kts
09-Jan-18 15:06 36.985314 -118.547605 89 36823ft 468kts
09-Jan-18 15:07 36.994688 -118.385220 89 36820ft 469kts
09-Jan-18 15:08 37.003813 -118.222052 90 36817ft 469kts
09-Jan-18 15:09 37.012692 -118.059339 90 36819ft 470kts
09-Jan-18 15:10 37.021317 -117.896253 91 36816ft 470kts
09-Jan-18 15:11 37.029844 -117.732040 91 36740ft 473kts
09-Jan-18 15:12 37.038210 -117.567977 91 36785ft 474kts
09-Jan-18 15:13 37.046275 -117.402910 91 36830ft 475kts
09-Jan-18 15:14 37.054040 -117.238532 92 35259ft 474kts
09-Jan-18 15:15 37.061765 -117.072960 93 32374ft 479kts
09-Jan-18 15:16 37.031733 -116.921619 136 29504ft 431kts
09-Jan-18 15:17 36.937929 -116.842608 156 27132ft 398kts
09-Jan-18 15:18 36.842601 -116.776767 155 24842ft 384kts
09-Jan-18 15:19 36.760265 -116.691571 136 23801ft 394kts
09-Jan-18 15:20 36.689122 -116.588362 137 23506ft 388kts
09-Jan-18 15:21 36.618559 -116.488331 137 21521ft 380kts
09-Jan-18 15:22 36.549319 -116.390275 137 20821ft 376kts
09-Jan-18 15:23 36.480119 -116.292535 138 20965ft 377kts
09-Jan-18 15:24 36.411251 -116.195341 138 19629ft 372kts
09-Jan-18 15:25 36.343522 -116.100235 138 17917ft 362kts
09-Jan-18 15:26 36.278999 -116.009663 138 17199ft 325kts
09-Jan-18 15:27 36.222752 -115.931210 139 16342ft 291kts
09-Jan-18 15:28 36.181330 -115.842831 118 15967ft 313kts
09-Jan-18 15:29 36.150031 -115.742523 119 14835ft 311kts
09-Jan-18 15:30 36.118452 -115.644634 118 13397ft 297kts
09-Jan-18 15:31 36.088335 -115.551650 119 12395ft 291kts
09-Jan-18 15:32 36.058495 -115.459536 118 11403ft 287kts
09-Jan-18 15:33 36.031158 -115.373115 110 10955ft 265kts
09-Jan-18 15:34 36.024528 -115.281171 101 9766ft 263kts
09-Jan-18 15:35 36.018086 -115.195860 101 8935ft 237kts
09-Jan-18 15:36 36.012576 -115.115010 100 7987ft 234kts
09-Jan-18 15:37 36.007321 -115.038279 99 7991ft 222kts
09-Jan-18 15:38 36.002899 -114.964958 99 7985ft 206kts
09-Jan-18 15:39 36.008174 -114.895825 63 7522ft 214kts
09-Jan-18 15:40 36.011613 -114.826405 86 6029ft 207kts
09-Jan-18 15:41 36.056890 -114.807607 311 4982ft 208kts
09-Jan-18 15:42 36.073948 -114.870628 268 4990ft 190kts
09-Jan-18 15:43 36.073824 -114.935895 266 4988ft 192kts
09-Jan-18 15:44 36.073774 -115.000547 267 4176ft 182kts
09-Jan-18 15:45 36.073726 -115.059690 267 3267ft 155kts
09-Jan-18 15:46 36.073682 -115.110844 270 2473ft 142kts
09-Jan-18 15:47 36.073818 -115.148259 279 2195ft 34kts
09-Jan-18 15:48 36.074431 -115.149942 296 2195ft 2kts
09-Jan-18 15:49 36.074632 -115.150427 297 2195ft 4kts
09-Jan-18 15:50 36.077620 -115.152633 342 2195ft 0kts
09-Jan-18 15:51 36.077725 -115.152672 343 2195ft 4kts
09-Jan-18 15:52 36.078799 -115.152574 80 2195ft 19kts
09-Jan-18 15:53 36.078215 -115.143159 90 2195ft 14kts
09-Jan-18 15:54 36.079249 -115.140423 50 2195ft 5kts
09-Jan-18 15:55 36.079757 -115.140083 23 2195ft 0kts
09-Jan-18 15:56 36.079757 -115.140083 23 2195ft 0kts

Navigation Log

Ident Type
Flight plan parsing failed, navigation log unavailable